• Join FlightAware (Why Join?)
  • Login
  • US Flag 
05:49AM EDT


 

Airport Tracker/Info


-or-


 

Live Flight TrackerFlight Track Log ✈ BJS619 ✈ 12-May-2013 ✈ KGEG - KJAC

Flight Track Log - Related Links

Times and Time Zones

All times are in EDT time to prevent confusion due to time zone crossing. See the BJS619 flight status page for this flight to view local times or setup timezone preferences in your user account.

Time Position Orientation Groundspeed Altitude Reporting Facility
EDT Latitude Longitude Course Direction KTS MPH feet Rate Location/Type
12:23PM 47.6067 -117.5583 146° Southeast 169 194 3,600  Level Seattle Center
12:24PM 47.5586 -117.5694 189° South 206 237 7,200 3,180 Climbing Seattle Center
12:25PM 47.5069 -117.5256 150° Southeast 216 249 10,100 2,640 Climbing Seattle Center
12:26PM 47.4397 -117.4442 141° Southeast 319 367 12,600 3,120 Climbing Seattle Center
12:27PM 47.3714 -117.3386 134° Southeast 363 418 16,400 3,420 Climbing Seattle Center
12:28PM 47.2967 -117.2306 136° Southeast 376 433 19,600 3,120 Climbing Seattle Center
12:29PM 46.9328 -116.6995 146° Southeast  Level FlightAware Approximate
12:29PM 47.1989 -117.0878 135° Southeast 410 472 22,800  Level Seattle Center
12:30PM 47.1147 -116.9672 136° Southeast 422 486 25,800 2,280 Climbing Seattle Center
12:31PM 47.0286 -116.8422 135° Southeast 436 502 27,400 1,980 Climbing Seattle Center
12:32PM 46.9397 -116.7111 135° Southeast 452 520 29,800 2,280 Climbing Seattle Center
12:33PM 46.8508 -116.5822 135° Southeast 453 521 32,100 1,860 Climbing Seattle Center
12:34PM 46.7522 -116.4739 143° Southeast 450 518 33,600 1,380 Climbing Seattle Center
12:35PM 46.6475 -116.3686 145° Southeast 456 525 35,000 1,380 Climbing Seattle Center
12:36PM 46.5569 -116.2347 135° Southeast 472 543 36,500 1,440 Climbing Seattle Center
12:37PM 46.4856 -116.0722 122° Southeast 477 549 38,000 1,380 Climbing Seattle Center
12:38PM 46.4094 -115.9206 126° Southeast 472 543 39,400 1,380 Climbing Seattle Center
12:39PM 46.3356 -115.7689 125° Southeast 466 536 40,900 780 Climbing Seattle Center
12:41PM 46.2606 -115.6183 126° Southeast 462 532 41,000  Climbing Seattle Center
12:42PM 46.1822 -115.4633 126° Southeast 474 545 41,000  Level Seattle Center
12:43PM 46.1056 -115.3086 126° Southeast 476 548 41,000  Level Seattle Center
12:44PM 46.0125 -115.1258 126° Southeast 474 545 41,000 240 Level Seattle Center
12:45PM 45.9386 -114.9811 126° Southeast 471 542 41,500 480 Climbing Salt Lake Center
12:46PM 45.8494 -114.8064 126° Southeast 477 549 42,100 480 Climbing Salt Lake Center
12:47PM 45.7708 -114.6542 126° Southeast 489 563 42,600 540 Climbing Salt Lake Center
12:48PM 45.6797 -114.4778 126° Southeast 492 566 43,300 600 Climbing Salt Lake Center
12:49PM 45.5972 -114.3194 127° Southeast 491 565 43,900 720 Climbing Salt Lake Center
12:50PM 45.5250 -114.1794 126° Southeast 485 558 44,800 480 Climbing Salt Lake Center
12:51PM 45.4381 -114.0158 127° Southeast 467 537 45,000 60 Climbing Salt Lake Center
12:52PM 45.3658 -113.8806 127° Southeast 453 521 45,000  Level Salt Lake Center
12:53PM 45.2850 -113.7297 127° Southeast 454 522 45,000  Level Salt Lake Center
12:54PM 45.2122 -113.5911 127° Southeast 457 526 45,000  Level Salt Lake Center
12:55PM 45.1256 -113.4306 127° Southeast 459 528 45,000  Level Salt Lake Center
12:56PM 45.0508 -113.2928 127° Southeast 461 531 45,000  Level Salt Lake Center
12:57PM 44.9642 -113.1317 127° Southeast 462 532 45,000  Level Salt Lake Center
12:58PM 44.8886 -112.9939 128° Southeast 462 532 45,000  Level Salt Lake Center
12:59PM 44.8136 -112.8572 128° Southeast 462 532 45,000  Level Salt Lake Center
01:00PM 44.7278 -112.6992 127° Southeast 458 527 45,000  Level Salt Lake Center
01:01PM 44.6531 -112.5639 128° Southeast 458 527 45,000 -720 Level Salt Lake Center
01:02PM 44.5647 -112.4061 128° Southeast 460 529 43,600 -2,580 Descending Salt Lake Center
01:03PM 44.4881 -112.2683 128° Southeast 469 540 39,800 -3,660 Descending Salt Lake Center
01:04PM 44.3969 -112.1072 128° Southeast 475 547 36,100 -2,880 Descending Salt Lake Center
01:05PM 44.3194 -111.9714 129° Southeast 471 542 34,000 -1,080 Descending Salt Lake Center
01:06PM 44.2308 -111.8133 128° Southeast 469 540 34,000  Level Salt Lake Center
01:07PM 44.1503 -111.6731 129° Southeast 484 557 34,000 -540 Level Salt Lake Center
01:08PM 44.0578 -111.5114 128° Southeast 481 554 33,000 -2,820 Descending Salt Lake Center
01:09PM 43.9803 -111.3797 129° Southeast 466 536 28,300 -4,680 Descending Salt Lake Center
01:10PM 43.9097 -111.2556 128° Southeast 436 502 23,500 -4,680 Descending Salt Lake Center
01:11PM 43.8333 -111.1225 128° Southeast 401 461 18,700 -3,540 Descending Salt Lake Center
01:12PM 43.7672 -111.0117 130° Southeast 391 450 16,300 -1,320 Descending Salt Lake Center
01:13PM 43.7039 -110.9011 128° Southeast 351 404 16,000 -360 Descending Salt Lake Center
01:14PM 43.6769 -110.8222 115° Southeast 234 269 15,600 -1,620 Descending Salt Lake Center
01:15PM 43.7003 -110.7572 64° Northeast 190 219 12,700 -2,760 Descending Salt Lake Center
01:16PM 43.6981 -110.6897 93° East 189 217 10,000 -2,520 Descending Salt Lake Center
01:17PM 43.6594 -110.7108 202° Southwest 171 197 7,600 -1,740 Descending Salt Lake Center
01:18PM 43.6186 -110.7336 202° Southwest 160 184 6,500 -1,080 Descending Salt Lake Center